Time;durP1;ratioP1;P1;durP2;ratioP2;P2;SDS_P1;SDS_P2;PMS_P1;PMS_P2;Temp;Humidity;BMP_temperature;BMP_pressure;BME280_temperature;BME280_humidity;BME280_pressure;Samples;Min_cycle;Max_cycle;Signal;HPM_P1;HPM_P2
2023/10/20 00:00:58;;;;;;;7.82;3.10;;;15.30;99.90;;;;;;5076615;28;20554;-62
2023/10/20 00:03:25;;;;;;;7.53;2.60;;;15.30;99.90;;;;;;5076491;28;20090;-60
2023/10/20 00:05:52;;;;;;;9.75;2.83;;;15.30;99.90;;;;;;5076100;28;20048;-65
2023/10/20 00:08:19;;;;;;;9.02;2.92;;;15.30;99.90;;;;;;5076371;28;20045;-62
2023/10/20 00:10:46;;;;;;;7.75;2.60;;;15.30;99.90;;;;;;5076248;28;20503;-62
2023/10/20 00:13:13;;;;;;;8.45;2.78;;;15.30;99.90;;;;;;5076439;28;20056;-62
2023/10/20 00:15:39;;;;;;;6.57;2.47;;;15.30;99.90;;;;;;5076089;28;20052;-61
2023/10/20 00:18:06;;;;;;;9.57;2.50;;;15.40;99.90;;;;;;5075105;28;20044;-62
2023/10/20 00:20:33;;;;;;;7.28;2.67;;;15.30;99.90;;;;;;5076052;28;20156;-58
2023/10/20 00:23:00;;;;;;;6.82;2.22;;;15.30;99.90;;;;;;5075957;28;20098;-58
2023/10/20 00:25:27;;;;;;;9.05;2.60;;;15.30;99.90;;;;;;5075498;28;20453;-61
2023/10/20 00:27:55;;;;;;;10.40;2.90;;;15.30;99.90;;;;;;5076023;28;20391;-65
2023/10/20 00:30:22;;;;;;;11.18;2.85;;;15.30;99.90;;;;;;5076207;28;20045;-56
2023/10/20 00:32:49;;;;;;;12.75;2.78;;;15.20;99.90;;;;;;5075267;28;20098;-65
2023/10/20 00:35:15;;;;;;;8.82;2.25;;;15.20;99.90;;;;;;5075580;28;20037;-62
2023/10/20 00:37:42;;;;;;;6.38;1.92;;;15.20;99.90;;;;;;5074094;28;20461;-63
2023/10/20 00:40:09;;;;;;;6.80;2.45;;;15.20;99.90;;;;;;5075277;28;20044;-65
2023/10/20 00:42:36;;;;;;;6.25;2.00;;;15.20;99.90;;;;;;5074093;28;20036;-60
2023/10/20 00:45:04;;;;;;;4.63;1.83;;;15.20;99.90;;;;;;5075167;28;20090;-61
2023/10/20 00:47:30;;;;;;;4.22;1.65;;;15.10;99.90;;;;;;5075027;28;20041;-66
2023/10/20 00:49:57;;;;;;;6.18;2.00;;;15.10;99.90;;;;;;5074882;28;20064;-65
2023/10/20 00:52:24;;;;;;;5.05;2.08;;;15.20;99.90;;;;;;5074954;28;20041;-65
2023/10/20 00:54:51;;;;;;;8.45;2.33;;;15.10;99.90;;;;;;5073641;28;20052;-64
2023/10/20 00:57:18;;;;;;;6.93;2.38;;;15.10;99.90;;;;;;5074977;28;20048;-62
2023/10/20 00:59:45;;;;;;;7.07;2.72;;;15.10;99.90;;;;;;5073954;28;20475;-61
2023/10/20 01:02:12;;;;;;;10.90;2.78;;;15.10;99.90;;;;;;5075240;28;20040;-61
2023/10/20 01:04:39;;;;;;;9.35;2.85;;;15.10;99.90;;;;;;5075128;28;20040;-61
2023/10/20 01:07:06;;;;;;;8.82;3.13;;;15.10;99.90;;;;;;5075173;28;20089;-62
2023/10/20 01:09:33;;;;;;;6.55;3.15;;;15.10;99.90;;;;;;5075052;28;20046;-65
2023/10/20 01:11:59;;;;;;;8.00;3.40;;;15.10;99.90;;;;;;5075191;28;20043;-62
2023/10/20 01:14:26;;;;;;;8.75;3.88;;;15.10;99.90;;;;;;5074686;28;20048;-61
2023/10/20 01:16:53;;;;;;;8.82;3.25;;;15.10;99.90;;;;;;5073749;28;20435;-63
2023/10/20 01:19:20;;;;;;;8.30;3.40;;;15.00;99.90;;;;;;5073580;28;20097;-62
2023/10/20 01:21:47;;;;;;;8.55;3.75;;;15.00;99.90;;;;;;5074939;28;20434;-58
2023/10/20 01:24:14;;;;;;;9.40;4.32;;;15.00;99.90;;;;;;5074766;28;20127;-60
2023/10/20 01:26:43;;;;;;;8.93;4.43;;;15.10;99.90;;;;;;5074624;28;20045;-63
2023/10/20 01:29:12;;;;;;;9.38;4.28;;;15.10;99.90;;;;;;5074621;28;20102;-63
2023/10/20 01:31:39;;;;;;;9.07;4.38;;;15.10;99.90;;;;;;5074372;28;20039;-63
2023/10/20 01:34:06;;;;;;;8.80;4.70;;;15.10;99.90;;;;;;5074500;28;20045;-62
2023/10/20 01:36:33;;;;;;;12.40;4.28;;;15.10;99.90;;;;;;5072928;28;20094;-62
2023/10/20 01:38:59;;;;;;;9.38;4.88;;;15.20;99.90;;;;;;5074345;28;20105;-64
2023/10/20 01:41:26;;;;;;;7.93;4.70;;;15.20;99.90;;;;;;5073374;28;20044;-63
2023/10/20 01:43:53;;;;;;;8.55;4.82;;;15.30;99.90;;;;;;5073209;28;20454;-62
2023/10/20 01:46:20;;;;;;;11.68;4.93;;;15.30;99.90;;;;;;5074233;28;20379;-63
2023/10/20 01:48:47;;;;;;;7.75;4.50;;;15.30;99.90;;;;;;5074483;28;20032;-67
2023/10/20 01:51:14;;;;;;;7.60;4.10;;;15.30;99.90;;;;;;5073941;28;20032;-64
2023/10/20 01:53:41;;;;;;;5.07;3.95;;;15.30;99.90;;;;;;5074282;28;20468;-64
2023/10/20 01:56:08;;;;;;;4.60;3.78;;;15.30;99.90;;;;;;5072681;28;20098;-65
2023/10/20 01:58:35;;;;;;;4.47;3.97;;;15.30;99.90;;;;;;5072629;28;20135;-62
2023/10/20 02:01:02;;;;;;;4.85;4.18;;;15.30;99.90;;;;;;5073114;28;20040;-61
2023/10/20 02:03:30;;;;;;;5.57;4.43;;;15.30;99.90;;;;;;5073858;28;20108;-63
2023/10/20 02:05:57;;;;;;;6.20;4.07;;;15.30;99.90;;;;;;5073034;28;20039;-64
2023/10/20 02:08:24;;;;;;;6.63;4.25;;;15.30;99.90;;;;;;5074225;28;20060;-61
2023/10/20 02:10:51;;;;;;;6.40;4.18;;;15.40;99.90;;;;;;5073657;28;20059;-64
2023/10/20 02:13:17;;;;;;;5.28;4.60;;;15.30;99.90;;;;;;5073936;28;20056;-63
2023/10/20 02:15:45;;;;;;;9.75;5.50;;;15.30;99.90;;;;;;5073775;28;20463;-66
2023/10/20 02:18:11;;;;;;;7.65;6.25;;;15.40;99.90;;;;;;5072581;28;20132;-63
2023/10/20 02:20:38;;;;;;;7.28;6.47;;;15.40;99.90;;;;;;5072149;28;20115;-64
2023/10/20 02:23:07;;;;;;;7.07;6.38;;;15.40;99.90;;;;;;5072091;28;20375;-63
2023/10/20 02:25:34;;;;;;;7.55;5.90;;;15.40;99.90;;;;;;5073488;28;20094;-64
2023/10/20 02:28:02;;;;;;;5.35;4.85;;;15.40;99.90;;;;;;5072398;28;20542;-63
2023/10/20 02:30:29;;;;;;;6.03;5.43;;;15.40;99.90;;;;;;5073379;28;20042;-65
2023/10/20 02:32:57;;;;;;;6.85;5.57;;;15.40;99.90;;;;;;5072021;28;20114;-61
2023/10/20 02:35:25;;;;;;;7.60;6.10;;;15.40;99.90;;;;;;5073540;28;20039;-64
2023/10/20 02:37:52;;;;;;;6.65;5.97;;;15.40;99.90;;;;;;5073657;28;20147;-64
2023/10/20 02:40:19;;;;;;;6.38;5.78;;;15.40;99.90;;;;;;5071757;28;20446;-63
2023/10/20 02:42:45;;;;;;;6.47;5.60;;;15.40;99.90;;;;;;5073302;28;20051;-62
2023/10/20 02:45:12;;;;;;;6.45;5.82;;;15.40;99.90;;;;;;5073249;28;20455;-66
2023/10/20 02:47:39;;;;;;;6.15;5.43;;;15.40;99.90;;;;;;5073694;28;20048;-63
2023/10/20 02:50:06;;;;;;;7.47;5.50;;;15.40;99.90;;;;;;5071746;28;20044;-62
2023/10/20 02:52:33;;;;;;;5.93;4.30;;;15.40;99.90;;;;;;5072918;28;20479;-63
2023/10/20 02:55:00;;;;;;;6.45;4.40;;;15.40;99.90;;;;;;5073569;28;20395;-63
2023/10/20 02:57:27;;;;;;;4.28;3.55;;;15.40;99.90;;;;;;5071828;28;20053;-66
2023/10/20 02:59:54;;;;;;;4.15;2.90;;;15.40;99.90;;;;;;5073163;28;20040;-64
2023/10/20 03:02:22;;;;;;;1.90;1.30;;;15.40;99.90;;;;;;5073329;28;20059;-60
2023/10/20 03:04:49;;;;;;;2.03;0.77;;;15.30;99.90;;;;;;5071477;28;20040;-64
2023/10/20 03:07:18;;;;;;;1.15;0.60;;;15.30;99.90;;;;;;5071560;28;20543;-63
2023/10/20 03:09:44;;;;;;;2.08;0.60;;;15.30;99.90;;;;;;5073135;28;20094;-64
2023/10/20 03:12:11;;;;;;;2.13;0.55;;;15.20;99.90;;;;;;5073187;28;20037;-64
2023/10/20 03:14:38;;;;;;;1.60;0.60;;;15.20;99.90;;;;;;5071702;28;20050;-65
2023/10/20 03:17:05;;;;;;;1.75;0.70;;;15.20;99.90;;;;;;5071392;28;20044;-66
2023/10/20 03:19:32;;;;;;;3.38;1.35;;;15.20;99.90;;;;;;5072794;28;20449;-64
2023/10/20 03:21:59;;;;;;;1.98;1.30;;;15.20;99.90;;;;;;5073044;28;20044;-62
2023/10/20 03:24:26;;;;;;;1.77;0.73;;;15.20;99.90;;;;;;5071332;28;20040;-66
2023/10/20 03:26:53;;;;;;;1.55;0.50;;;15.20;99.90;;;;;;5072955;28;20450;-64
2023/10/20 03:29:21;;;;;;;0.60;0.30;;;15.20;99.90;;;;;;5073058;28;20211;-64
2023/10/20 03:31:48;;;;;;;2.17;0.40;;;15.20;99.90;;;;;;5071324;28;20045;-61
2023/10/20 03:34:16;;;;;;;0.82;0.30;;;15.10;99.90;;;;;;5071753;28;20059;-64
2023/10/20 03:36:42;;;;;;;1.15;0.40;;;15.10;99.90;;;;;;5072759;28;20399;-61
2023/10/20 03:39:21;;;;;;;1.38;0.30;;;15.10;99.90;;;;;;5072480;28;20052;-61
2023/10/20 03:41:49;;;;;;;1.02;0.40;;;15.00;99.90;;;;;;5072940;28;20110;-62
2023/10/20 03:44:16;;;;;;;1.05;0.45;;;14.90;99.90;;;;;;5072975;28;20127;-62
2023/10/20 03:46:49;;;;;;;0.93;0.40;;;14.90;99.90;;;;;;5071797;28;20041;-63
2023/10/20 03:49:18;;;;;;;3.88;0.40;;;14.80;99.90;;;;;;5071779;28;20454;-63
2023/10/20 03:51:49;;;;;;;0.95;0.47;;;14.80;99.90;;;;;;5071927;28;20037;-66
2023/10/20 03:54:16;;;;;;;0.47;0.28;;;14.80;99.90;;;;;;5075483;28;20059;-62
2023/10/20 03:56:43;;;;;;;0.80;0.20;;;14.70;99.90;;;;;;5075203;28;20430;-62
2023/10/20 03:59:10;;;;;;;1.02;0.40;;;14.70;99.90;;;;;;5075114;28;20048;-64
2023/10/20 04:01:37;;;;;;;4.35;0.77;;;14.70;99.90;;;;;;5076151;28;20048;-63
2023/10/20 04:04:04;;;;;;;1.60;0.70;;;14.70;99.90;;;;;;5076626;28;20127;-63
2023/10/20 04:06:31;;;;;;;5.00;0.75;;;14.60;99.90;;;;;;5075857;28;20040;-61
2023/10/20 04:08:59;;;;;;;2.55;0.70;;;14.60;99.90;;;;;;5075904;28;20067;-64
2023/10/20 04:11:26;;;;;;;1.52;0.43;;;14.60;99.90;;;;;;5075973;28;20533;-61
2023/10/20 04:13:53;;;;;;;4.25;0.68;;;14.60;99.90;;;;;;5075804;28;20356;-64
2023/10/20 04:16:19;;;;;;;3.50;0.80;;;14.60;99.90;;;;;;5074356;28;20521;-62
2023/10/20 04:18:47;;;;;;;1.58;0.45;;;14.50;99.90;;;;;;5076161;28;20376;-66
2023/10/20 04:21:13;;;;;;;6.43;0.70;;;14.50;99.90;;;;;;5075826;28;20037;-64
2023/10/20 04:23:43;;;;;;;3.20;0.60;;;14.50;99.90;;;;;;5076031;28;20072;-64
2023/10/20 04:26:18;;;;;;;3.65;0.80;;;14.50;99.90;;;;;;5076152;28;20123;-65
2023/10/20 04:28:45;;;;;;;3.40;0.93;;;14.40;99.90;;;;;;5075912;28;20040;-63
2023/10/20 04:48:13;;;;;;;7.20;1.30;;;14.40;99.90;;;;;;5075328;28;20036;-67
2023/10/20 04:53:25;;;;;;;4.65;1.40;;;14.40;99.90;;;;;;5075369;28;20040;-65
2023/10/20 05:01:30;;;;;;;3.72;1.30;;;14.40;99.90;;;;;;5074994;28;20127;-64
2023/10/20 05:03:57;;;;;;;3.13;1.40;;;14.50;99.90;;;;;;5074583;28;20047;-64
2023/10/20 05:06:40;;;;;;;4.22;1.45;;;14.50;99.90;;;;;;5074959;28;20072;-64
2023/10/20 05:09:09;;;;;;;5.28;1.58;;;14.50;99.90;;;;;;5075022;28;20036;-62
2023/10/20 05:11:36;;;;;;;3.92;1.55;;;14.50;99.90;;;;;;5075150;28;20467;-63
2023/10/20 05:14:03;;;;;;;6.45;1.90;;;14.50;99.90;;;;;;5075222;28;20387;-65
2023/10/20 05:16:33;;;;;;;2.75;1.58;;;14.50;99.90;;;;;;5074947;28;20471;-62
2023/10/20 05:19:01;;;;;;;5.18;2.00;;;14.50;99.90;;;;;;5073592;28;20436;-64
2023/10/20 05:21:28;;;;;;;3.47;1.58;;;14.60;99.90;;;;;;5074918;28;20149;-62
2023/10/20 05:23:55;;;;;;;4.60;1.67;;;14.60;99.90;;;;;;5074958;28;20119;-61
2023/10/20 05:26:23;;;;;;;2.95;1.40;;;14.60;99.90;;;;;;5074429;28;20498;-66
2023/10/20 05:28:50;;;;;;;2.53;1.52;;;14.60;99.90;;;;;;5074432;28;20040;-62
2023/10/20 05:31:17;;;;;;;4.15;1.42;;;14.60;99.90;;;;;;5074715;28;20052;-62
2023/10/20 05:33:45;;;;;;;6.38;1.48;;;14.60;99.90;;;;;;5074542;28;20153;-63
2023/10/20 05:36:12;;;;;;;5.32;1.70;;;14.60;99.90;;;;;;5074354;28;20045;-62
2023/10/20 05:38:39;;;;;;;3.70;1.00;;;14.50;99.90;;;;;;5074436;28;20044;-63
2023/10/20 05:41:05;;;;;;;2.30;0.93;;;14.50;99.90;;;;;;5074324;28;20048;-63
2023/10/20 05:43:32;;;;;;;3.22;0.70;;;14.50;99.90;;;;;;5073088;28;20055;-67
2023/10/20 05:45:59;;;;;;;4.93;0.80;;;14.50;99.90;;;;;;5073933;28;20066;-66
2023/10/20 05:48:26;;;;;;;2.78;0.65;;;14.40;99.90;;;;;;5072842;28;20043;-64
2023/10/20 05:50:53;;;;;;;2.60;0.70;;;14.50;99.90;;;;;;5073841;28;20036;-64
2023/10/20 05:53:20;;;;;;;1.75;0.57;;;14.40;99.90;;;;;;5074168;28;20115;-64
2023/10/20 05:55:46;;;;;;;2.20;0.93;;;14.40;99.90;;;;;;5074160;28;20036;-61
2023/10/20 05:58:13;;;;;;;3.83;0.70;;;14.40;99.90;;;;;;5072555;28;20433;-65
2023/10/20 06:00:40;;;;;;;1.50;0.60;;;14.40;99.90;;;;;;5073635;28;20049;-63
2023/10/20 06:03:27;;;;;;;1.80;0.50;;;14.40;99.90;;;;;;5074102;28;20045;-64
2023/10/20 06:05:53;;;;;;;6.30;0.90;;;14.40;99.90;;;;;;5073732;28;20437;-63
2023/10/20 06:08:21;;;;;;;1.90;0.57;;;14.40;99.90;;;;;;5074121;28;20128;-61
2023/10/20 06:10:48;;;;;;;2.95;0.63;;;14.40;99.90;;;;;;5073627;28;20109;-63
2023/10/20 06:13:15;;;;;;;1.65;0.57;;;14.40;99.90;;;;;;5074068;28;20123;-64
2023/10/20 06:15:42;;;;;;;2.25;0.57;;;14.40;99.90;;;;;;5072944;28;20071;-64
2023/10/20 06:18:09;;;;;;;3.55;0.65;;;14.40;99.90;;;;;;5071968;28;20507;-63
2023/10/20 06:20:51;;;;;;;1.27;0.55;;;14.40;99.90;;;;;;5073299;28;20040;-65
2023/10/20 06:23:18;;;;;;;3.72;0.70;;;14.30;99.90;;;;;;5072121;28;20403;-62
2023/10/20 06:25:46;;;;;;;3.83;0.65;;;14.30;99.90;;;;;;5072074;28;20040;-62
2023/10/20 06:28:13;;;;;;;2.22;0.70;;;14.40;99.90;;;;;;5073548;28;20040;-63
2023/10/20 06:30:45;;;;;;;1.90;0.77;;;14.40;99.90;;;;;;5073309;28;20041;-62
2023/10/20 06:35:50;;;;;;;4.43;0.65;;;14.30;99.90;;;;;;5072767;28;20092;-63
2023/10/20 06:38:21;;;;;;;2.15;0.80;;;14.30;99.90;;;;;;5073600;28;20051;-61
2023/10/20 06:40:48;;;;;;;3.55;1.17;;;14.30;99.90;;;;;;5073079;28;20380;-63
2023/10/20 06:43:16;;;;;;;2.40;1.00;;;14.30;99.90;;;;;;5073542;28;20051;-64
2023/10/20 06:45:43;;;;;;;3.05;0.70;;;14.30;99.90;;;;;;5073523;28;20068;-64
2023/10/20 06:48:10;;;;;;;2.00;0.60;;;14.30;99.90;;;;;;5073353;28;20033;-62
2023/10/20 06:50:37;;;;;;;2.47;0.65;;;14.20;99.90;;;;;;5073207;28;20099;-64
2023/10/20 06:53:04;;;;;;;1.58;0.52;;;14.20;99.90;;;;;;5072507;28;20040;-62
2023/10/20 06:55:31;;;;;;;1.20;0.45;;;14.20;99.90;;;;;;5071812;28;20102;-62
2023/10/20 06:58:17;;;;;;;0.77;0.40;;;14.20;99.90;;;;;;5071481;28;20043;-61
2023/10/20 07:00:44;;;;;;;1.65;0.35;;;14.10;99.90;;;;;;5071776;28;20068;-60
2023/10/20 07:03:12;;;;;;;2.63;0.70;;;14.10;99.90;;;;;;5072102;28;20441;-62
2023/10/20 07:05:39;;;;;;;1.17;0.40;;;14.10;99.90;;;;;;5071684;28;20076;-63
2023/10/20 07:08:06;;;;;;;2.72;0.57;;;14.10;99.90;;;;;;5072129;28;20098;-64
2023/10/20 07:10:34;;;;;;;2.67;0.60;;;14.10;99.90;;;;;;5072768;28;20075;-64
2023/10/20 07:13:01;;;;;;;0.98;0.30;;;14.10;99.90;;;;;;5072812;28;20036;-64
2023/10/20 07:15:27;;;;;;;0.88;0.35;;;14.00;99.90;;;;;;5072971;28;20098;-63
2023/10/20 07:17:54;;;;;;;1.95;0.45;;;14.00;99.90;;;;;;5072658;28;20063;-61
2023/10/20 07:20:21;;;;;;;1.63;0.40;;;14.00;99.90;;;;;;5073132;28;20101;-61
2023/10/20 07:22:48;;;;;;;1.17;0.40;;;14.00;99.90;;;;;;5073029;28;20040;-62
2023/10/20 07:25:15;;;;;;;1.23;0.40;;;14.00;99.90;;;;;;5072634;28;20037;-59
2023/10/20 07:27:42;;;;;;;0.90;0.35;;;14.00;99.90;;;;;;5074571;28;20123;-62
2023/10/20 07:30:10;;;;;;;0.50;0.20;;;14.00;99.90;;;;;;5077045;28;20079;-62
2023/10/20 07:32:37;;;;;;;0.73;0.30;;;14.00;99.90;;;;;;5076556;28;20484;-62
2023/10/20 07:35:05;;;;;;;1.00;0.40;;;14.00;99.90;;;;;;5076524;28;20041;-63
2023/10/20 07:37:32;;;;;;;2.35;0.40;;;14.00;99.90;;;;;;5076522;28;20079;-62
2023/10/20 07:40:00;;;;;;;2.38;0.40;;;14.00;99.90;;;;;;5076587;28;20483;-63
2023/10/20 07:42:27;;;;;;;1.92;0.50;;;14.00;99.90;;;;;;5075070;28;20044;-59
2023/10/20 07:44:54;;;;;;;1.33;0.45;;;14.10;99.90;;;;;;5076227;28;20082;-64
2023/10/20 07:47:22;;;;;;;2.88;0.40;;;14.10;99.90;;;;;;5076405;28;20036;-62
2023/10/20 07:49:49;;;;;;;1.73;0.50;;;14.20;99.90;;;;;;5076164;28;20044;-60
2023/10/20 07:52:16;;;;;;;2.03;0.50;;;14.20;99.90;;;;;;5076496;28;20040;-61
2023/10/20 07:54:43;;;;;;;0.88;0.30;;;14.20;99.90;;;;;;5076133;28;20041;-61
2023/10/20 07:57:12;;;;;;;1.02;0.32;;;14.20;99.90;;;;;;5076073;28;20050;-61
2023/10/20 07:59:42;;;;;;;0.85;0.30;;;14.20;99.90;;;;;;5076028;28;20098;-59
2023/10/20 08:02:09;;;;;;;1.27;0.45;;;14.20;99.90;;;;;;5075907;28;20045;-62
2023/10/20 08:04:36;;;;;;;1.25;0.40;;;14.30;99.90;;;;;;5076086;28;20037;-61
2023/10/20 08:07:04;;;;;;;1.42;0.50;;;14.30;99.90;;;;;;5076314;28;20032;-61
2023/10/20 08:09:31;;;;;;;2.10;0.50;;;14.30;99.90;;;;;;5076069;28;20032;-64
2023/10/20 08:11:59;;;;;;;1.55;0.40;;;14.30;99.90;;;;;;5075739;28;20106;-61
2023/10/20 08:14:26;;;;;;;3.60;1.00;;;14.30;99.90;;;;;;5076004;28;20044;-63
2023/10/20 08:16:53;;;;;;;2.95;0.57;;;14.30;99.90;;;;;;5075662;28;20060;-63
2023/10/20 08:19:23;;;;;;;1.63;0.60;;;14.30;99.90;;;;;;5075513;28;20041;-62
2023/10/20 08:21:50;;;;;;;2.38;0.70;;;14.20;99.90;;;;;;5074298;28;20046;-62
2023/10/20 08:24:17;;;;;;;4.00;0.70;;;14.30;99.90;;;;;;5075890;28;20040;-63
2023/10/20 08:26:44;;;;;;;1.38;0.70;;;14.30;99.90;;;;;;5075601;28;20452;-61
2023/10/20 08:29:11;;;;;;;5.22;0.90;;;14.30;99.90;;;;;;5074033;28;20032;-64
2023/10/20 08:31:39;;;;;;;1.35;0.85;;;14.30;99.90;;;;;;5075604;28;20032;-60
2023/10/20 08:34:06;;;;;;;1.92;1.10;;;14.30;99.90;;;;;;5075633;28;20372;-64
2023/10/20 08:36:33;;;;;;;2.22;1.50;;;14.30;99.90;;;;;;5075420;28;20479;-60
2023/10/20 08:39:05;;;;;;;2.10;1.90;;;14.30;99.90;;;;;;5074705;28;20045;-60
2023/10/20 08:41:33;;;;;;;2.85;2.08;;;14.30;99.90;;;;;;5075335;28;20509;-63
2023/10/20 08:44:03;;;;;;;3.08;2.08;;;14.30;99.90;;;;;;5075205;28;20588;-63
2023/10/20 08:46:29;;;;;;;2.78;2.05;;;14.30;99.90;;;;;;5075693;28;20098;-62
2023/10/20 08:48:57;;;;;;;2.30;1.55;;;14.30;99.90;;;;;;5075282;28;20111;-63
2023/10/20 08:51:24;;;;;;;3.92;1.80;;;14.30;99.90;;;;;;5075195;28;20452;-61
2023/10/20 08:53:51;;;;;;;2.00;1.65;;;14.30;99.90;;;;;;5074752;28;20139;-61
2023/10/20 08:56:18;;;;;;;3.65;2.00;;;14.30;99.90;;;;;;5073632;28;20044;-62
2023/10/20 08:58:46;;;;;;;2.03;1.35;;;14.40;99.90;;;;;;5074706;28;20044;-62
2023/10/20 09:01:13;;;;;;;2.67;1.63;;;14.40;99.90;;;;;;5074651;28;20044;-64
2023/10/20 09:03:42;;;;;;;4.05;1.60;;;14.40;99.90;;;;;;5074791;28;20044;-64
2023/10/20 09:06:10;;;;;;;2.00;1.70;;;14.40;99.90;;;;;;5074316;28;20044;-61
2023/10/20 09:08:37;;;;;;;4.03;2.00;;;14.40;99.90;;;;;;5074636;28;20032;-61
2023/10/20 09:11:07;;;;;;;2.58;1.80;;;14.50;99.90;;;;;;5074534;28;20044;-63
2023/10/20 09:13:40;;;;;;;2.30;1.92;;;14.50;99.90;;;;;;5074216;28;20502;-62
2023/10/20 09:16:07;;;;;;;3.38;2.10;;;14.50;99.90;;;;;;5074894;28;20053;-59
2023/10/20 09:18:36;;;;;;;4.07;2.20;;;14.40;99.90;;;;;;5074289;28;20131;-65
2023/10/20 09:21:04;;;;;;;3.15;2.63;;;14.50;99.90;;;;;;5074524;28;20459;-62
2023/10/20 09:23:32;;;;;;;4.88;3.40;;;14.50;99.90;;;;;;5074622;28;20036;-63
2023/10/20 09:25:59;;;;;;;4.70;3.70;;;14.50;99.90;;;;;;5074878;28;20107;-63
2023/10/20 09:28:27;;;;;;;4.25;3.63;;;14.50;99.90;;;;;;5074174;28;20510;-60
2023/10/20 09:30:54;;;;;;;4.25;3.65;;;14.40;99.90;;;;;;5074584;28;20485;-66
2023/10/20 09:33:23;;;;;;;4.85;4.10;;;14.50;99.90;;;;;;5073960;28;20045;-62
2023/10/20 09:35:52;;;;;;;4.65;3.72;;;14.50;99.90;;;;;;5074204;28;20128;-59
2023/10/20 09:38:19;;;;;;;3.90;3.50;;;14.50;99.90;;;;;;5074054;28;20048;-59
2023/10/20 09:40:47;;;;;;;3.53;3.22;;;14.50;99.90;;;;;;5074329;28;20151;-60
2023/10/20 09:43:14;;;;;;;3.42;3.00;;;14.50;99.90;;;;;;5074342;28;20036;-63
2023/10/20 09:45:52;;;;;;;3.50;2.65;;;14.60;99.90;;;;;;5074123;28;20036;-64
2023/10/20 09:48:19;;;;;;;3.10;2.65;;;14.50;99.90;;;;;;5074067;28;20131;-62
2023/10/20 09:50:48;;;;;;;3.55;2.90;;;14.60;99.90;;;;;;5072934;28;20041;-58
2023/10/20 09:53:18;;;;;;;3.05;2.75;;;14.60;99.90;;;;;;5074238;28;20497;-63
2023/10/20 09:55:45;;;;;;;3.55;2.83;;;14.60;99.90;;;;;;5073867;28;20041;-59
2023/10/20 09:58:13;;;;;;;4.80;3.00;;;14.70;99.90;;;;;;5073906;28;20102;-63
2023/10/20 10:00:40;;;;;;;4.68;2.80;;;14.70;99.90;;;;;;5073733;28;20040;-60
2023/10/20 10:03:08;;;;;;;3.25;2.60;;;14.70;99.90;;;;;;5073763;28;20040;-61
2023/10/20 10:05:36;;;;;;;3.72;2.15;;;14.70;99.90;;;;;;5072294;28;20509;-64
2023/10/20 10:08:03;;;;;;;4.20;2.60;;;14.70;99.90;;;;;;5073397;28;20071;-62
2023/10/20 10:10:30;;;;;;;4.22;2.20;;;14.70;99.90;;;;;;5073647;28;20098;-63
2023/10/20 10:12:58;;;;;;;2.50;1.95;;;14.70;99.90;;;;;;5073571;28;20063;-62
2023/10/20 10:15:25;;;;;;;2.22;1.80;;;14.70;99.90;;;;;;5073867;28;20041;-61
2023/10/20 10:17:52;;;;;;;2.67;1.90;;;14.80;99.90;;;;;;5073370;28;20044;-62
2023/10/20 10:20:19;;;;;;;2.38;1.70;;;14.70;99.90;;;;;;5073129;28;20040;-62
2023/10/20 10:22:46;;;;;;;2.33;1.50;;;14.80;99.90;;;;;;5073157;28;20040;-63
2023/10/20 10:25:14;;;;;;;3.65;1.38;;;14.80;99.90;;;;;;5073463;28;20040;-60
2023/10/20 10:27:40;;;;;;;1.90;1.30;;;14.80;99.90;;;;;;5073429;28;20127;-64
2023/10/20 10:30:07;;;;;;;4.45;1.40;;;14.90;99.90;;;;;;5073152;28;20037;-61
2023/10/20 10:32:34;;;;;;;2.15;1.30;;;14.90;99.90;;;;;;5073207;28;20159;-63
2023/10/20 10:35:01;;;;;;;2.35;1.10;;;14.90;99.90;;;;;;5073701;28;20071;-62
2023/10/20 10:37:29;;;;;;;3.35;1.00;;;15.00;99.90;;;;;;5072828;28;20051;-61
2023/10/20 10:39:56;;;;;;;1.67;1.10;;;15.00;99.90;;;;;;5073068;28;20060;-62
2023/10/20 10:42:27;;;;;;;1.65;1.00;;;15.00;99.90;;;;;;5073154;28;20087;-60
2023/10/20 10:44:54;;;;;;;1.65;0.90;;;15.00;99.90;;;;;;5072855;28;20121;-58
2023/10/20 10:47:22;;;;;;;2.35;0.82;;;15.10;99.90;;;;;;5072944;28;20040;-63
2023/10/20 10:49:50;;;;;;;1.45;0.93;;;15.10;99.90;;;;;;5073013;28;20123;-63
2023/10/20 10:52:18;;;;;;;1.60;1.00;;;15.00;99.90;;;;;;5073651;28;20037;-60
2023/10/20 10:54:45;;;;;;;1.95;0.90;;;15.10;99.90;;;;;;5073140;28;20064;-59
2023/10/20 10:57:13;;;;;;;1.50;0.90;;;15.10;99.90;;;;;;5071619;28;20438;-61
2023/10/20 10:59:40;;;;;;;3.50;0.88;;;15.20;99.90;;;;;;5072718;28;20044;-61
2023/10/20 11:02:07;;;;;;;1.30;0.63;;;15.30;99.90;;;;;;5074501;28;20083;-60
2023/10/20 11:04:33;;;;;;;1.77;0.95;;;15.30;99.90;;;;;;5076197;28;20040;-60
2023/10/20 11:07:01;;;;;;;6.95;1.00;;;15.30;99.90;;;;;;5076960;28;20044;-64
2023/10/20 11:09:29;;;;;;;1.73;0.90;;;15.40;99.90;;;;;;5077373;28;20590;-60
2023/10/20 11:11:56;;;;;;;1.25;0.70;;;15.40;99.90;;;;;;5077096;28;20041;-65
2023/10/20 11:14:23;;;;;;;3.38;1.15;;;15.40;99.90;;;;;;5076767;28;20115;-60
2023/10/20 11:16:50;;;;;;;1.95;0.80;;;15.50;99.90;;;;;;5076815;28;20369;-59
2023/10/20 11:19:17;;;;;;;1.33;0.70;;;15.50;99.90;;;;;;5076498;28;20063;-64
2023/10/20 11:21:44;;;;;;;3.30;1.50;;;15.40;99.90;;;;;;5077176;28;20049;-62
2023/10/20 11:24:11;;;;;;;1.67;0.90;;;15.40;99.90;;;;;;5076637;28;20052;-62
2023/10/20 11:26:38;;;;;;;1.65;0.80;;;15.30;99.90;;;;;;5077160;28;20036;-63
2023/10/20 11:29:04;;;;;;;1.88;0.90;;;15.30;99.90;;;;;;5076605;28;20086;-61
2023/10/20 11:31:31;;;;;;;1.50;0.88;;;15.20;99.90;;;;;;5077080;28;20101;-62
2023/10/20 11:33:59;;;;;;;2.00;0.85;;;15.30;99.90;;;;;;5076581;28;20048;-61
2023/10/20 11:36:26;;;;;;;1.60;0.80;;;15.30;99.90;;;;;;5077050;28;20040;-61
2023/10/20 11:38:52;;;;;;;4.07;0.80;;;15.20;99.90;;;;;;5076864;28;20479;-67
2023/10/20 11:41:19;;;;;;;2.42;1.17;;;15.20;99.90;;;;;;5076480;28;20040;-56
2023/10/20 11:43:46;;;;;;;2.03;0.82;;;15.20;99.90;;;;;;5076366;28;20041;-57
2023/10/20 11:46:13;;;;;;;1.40;0.63;;;15.10;99.90;;;;;;5076151;28;20094;-64
2023/10/20 11:48:40;;;;;;;3.30;0.90;;;15.20;99.90;;;;;;5076389;28;20464;-59
2023/10/20 11:51:08;;;;;;;3.30;0.80;;;15.20;99.90;;;;;;5076585;28;20036;-59
2023/10/20 11:53:36;;;;;;;1.58;0.90;;;15.20;99.90;;;;;;5076598;28;20115;-59
2023/10/20 11:56:03;;;;;;;1.88;0.88;;;15.20;99.90;;;;;;5076394;28;20040;-65
2023/10/20 11:58:30;;;;;;;1.58;0.90;;;15.30;99.90;;;;;;5076024;28;20139;-61
2023/10/20 12:00:57;;;;;;;1.83;0.80;;;15.30;99.90;;;;;;5076279;28;20048;-66
2023/10/20 12:03:24;;;;;;;1.75;0.82;;;15.30;99.90;;;;;;5075810;28;20044;-63
2023/10/20 12:05:52;;;;;;;2.67;0.80;;;15.40;99.90;;;;;;5074671;28;20036;-61
2023/10/20 12:08:20;;;;;;;1.42;0.70;;;15.40;99.90;;;;;;5076264;28;20428;-61
2023/10/20 12:10:47;;;;;;;1.35;0.82;;;15.40;99.90;;;;;;5076065;28;20434;-63
2023/10/20 12:13:14;;;;;;;2.45;0.82;;;15.40;99.90;;;;;;5073973;28;20059;-63
2023/10/20 12:15:41;;;;;;;1.90;0.98;;;15.50;99.90;;;;;;5075624;28;20391;-62
2023/10/20 12:18:08;;;;;;;1.38;0.80;;;15.50;99.90;;;;;;5075765;28;20465;-65
2023/10/20 12:20:35;;;;;;;3.78;0.63;;;15.60;99.90;;;;;;5075730;28;20068;-65
2023/10/20 12:23:03;;;;;;;3.47;1.10;;;15.60;99.90;;;;;;5075781;28;20051;-62
2023/10/20 12:25:29;;;;;;;3.97;1.02;;;15.60;99.90;;;;;;5075875;28;20052;-59
2023/10/20 12:27:56;;;;;;;1.23;0.60;;;15.60;99.90;;;;;;5075533;28;20098;-62
2023/10/20 12:30:23;;;;;;;1.20;0.60;;;15.50;99.90;;;;;;5075269;28;20056;-61
2023/10/20 12:32:50;;;;;;;1.55;0.80;;;15.50;99.90;;;;;;5075685;28;20455;-61
2023/10/20 12:35:17;;;;;;;1.92;0.70;;;15.60;99.90;;;;;;5075647;28;20348;-61
2023/10/20 12:37:45;;;;;;;1.83;0.77;;;15.60;99.90;;;;;;5075448;28;20052;-60
2023/10/20 12:40:13;;;;;;;4.40;0.90;;;15.60;99.90;;;;;;5075356;28;20067;-63
2023/10/20 12:42:40;;;;;;;1.83;0.63;;;15.70;99.90;;;;;;5075395;28;20051;-62
2023/10/20 12:45:09;;;;;;;2.60;0.70;;;15.70;99.90;;;;;;5075637;28;20129;-58
2023/10/20 12:47:36;;;;;;;1.42;0.77;;;15.70;99.90;;;;;;5075534;28;20147;-58
2023/10/20 12:50:03;;;;;;;2.85;0.70;;;15.70;99.90;;;;;;5075133;28;20048;-61
2023/10/20 12:52:30;;;;;;;2.17;0.70;;;15.70;99.90;;;;;;5075525;28;20036;-64
2023/10/20 12:54:57;;;;;;;1.20;0.50;;;15.70;99.90;;;;;;5074975;28;20044;-60
2023/10/20 12:57:23;;;;;;;2.33;0.73;;;15.70;99.90;;;;;;5074948;28;20132;-64
2023/10/20 12:59:50;;;;;;;2.35;0.60;;;15.70;99.90;;;;;;5075106;28;20044;-62
2023/10/20 13:02:17;;;;;;;1.48;0.60;;;15.70;99.90;;;;;;5075226;28;20063;-60
2023/10/20 13:04:44;;;;;;;1.70;0.60;;;15.70;99.90;;;;;;5074930;28;20391;-65
2023/10/20 13:07:11;;;;;;;2.05;0.50;;;15.80;99.90;;;;;;5075017;28;20126;-59
2023/10/20 13:09:40;;;;;;;1.85;0.77;;;15.80;99.90;;;;;;5074947;28;20040;-62
2023/10/20 13:12:07;;;;;;;3.22;0.65;;;15.90;99.90;;;;;;5074953;28;20037;-62
2023/10/20 13:14:36;;;;;;;2.30;0.70;;;15.90;99.90;;;;;;5073833;28;20041;-61